Florence, Vermont
Current Conditions -  °F | °C
As of 9:35 PM on Wednesday 22 Oct 2014 (Local Time) from KRUT Reporting Station
Overcast Overcast  
Wind Chill:   Ceiling: 2700
Heat Index:   Visibility: 10mi
Dew Point:   Wind: 16mph
Humidity: 82%   Direction: 10°N
Pressure: 30"   Gusts: 23mph
Location:  43.72°N, 73.06°W
Report Text: KRUT 230135Z 01014G20KT 10SM OVC027 09/06 A3000 RMK AO1
Loading
Personal Weather Stations






























Interactive Weather Map
Tropical Storm Tracking
New forecast layout! Learn more

10-Day Weather Forecast

Advertisements
Track Severe Weather on mobile